Terminal Aerodrome Forecast
Issued by NWS Tampa Bay Area, FL

Home | Current Version | Previous Version | Text Only | Print | Product List | Glossary On
Versions: 1 2 3 4 5 6 7 8 9 10 11 12 13 14 15 16
083
FTUS42 KTBW 232344
TAFFMY
TAF
KFMY 232344Z 2400/2424 19005KT P6SM VCSH FEW025 BKN040 OVC120
     FM240300 17003KT P6SM -RA SCT015 BKN040 OVC100
     FM240900 VRB03KT 6SM BR VCSH SCT015 SCT025 OVC050
      TEMPO 2409/2413 BKN025
     FM241400 21006KT P6SM VCSH SCT020 BKN050 OVC100
     FM241800 25008KT P6SM SCT025 BKN100
     FM242100 29010KT P6SM SCT030 BKN050=

USA.gov is the U.S. government's official web portal to all federal, state and local government web resources and services.